logo
Games tagged Pirates
# Game Release date
Price
Score rank
(Userscore / Metascore)
Owners
Players
Playtime (Median)
Developer(s)
Publisher(s)
1 The Curse of Monkey Island Oct 31, 1997 $6.99N/A (N/A/89%)100,000 .. 200,0000%00:00 (00:00)LucasArtsLucasArts, Lucasfilm, Disney
2 Return of the Obra Dinn Oct 18, 2018 $19.99N/A (N/A/89%)200,000 .. 500,0000%00:00 (00:00)Lucas Pope3909
3 Sid Meier's Pirates! Jul 11, 2005 $9.99N/A (N/A/88%)500,000 .. 1,000,0000%00:00 (00:00)Firaxis Games2K
4 Pillars of Eternity II: Deadfire May 8, 2018 $39.99N/A (N/A/88%)500,000 .. 1,000,0000%00:00 (00:00)Obsidian EntertainmentVersus Evil, Obsidian Entertainment
5 Monkey Island 2 Special Edition: LeChuck’s Revenge Jul 7, 2010 $9.99N/A (N/A/87%)200,000 .. 500,0000%00:00 (00:00)LucasArtsLucasArts, Lucasfilm, Disney
6 Sins of a Solar Empire: Trinity Nov 16, 2011 $4.99N/A (N/A/87%)100,000 .. 200,0000%00:00 (00:00)Ironclad Games, Stardock EntertainmentStardock Entertainment
7 The Secret of Monkey Island: Special Edition Jul 15, 2009 $9.99N/A (N/A/86%)500,000 .. 1,000,0000%00:00 (00:00)LucasArtsLucasArts, Lucasfilm, Disney
8 Escape from Monkey Island Nov 9, 2000 $6.99N/A (N/A/86%)20,000 .. 50,0000%00:00 (00:00)LucasArtsLucasfilm, Disney
9 Sins of a Solar Empire: Rebellion Jun 12, 2012 $39.99N/A (N/A/82%)2,000,000 .. 5,000,0000.54%10:03 (05:42)Ironclad Games, Stardock EntertainmentStardock Entertainment
10 Nelly Cootalot: The Fowl Fleet Mar 22, 2016 $9.99N/A (N/A/81%)20,000 .. 50,0000%00:00 (00:00)Alasdair Beckett-King, Application Systems HeidelbergApplication Systems Heidelberg
11 ArcheAge Mar 26, 2015 FreeN/A (N/A/80%)1,000,000 .. 2,000,0000%00:00 (00:00)XLGAMESTrion Worlds
12 Nelly Cootalot: Spoonbeaks Ahoy! HD May 22, 2019 $0.99N/A (N/A/80%)20,000 .. 50,0000%00:00 (00:00)Alasdair Beckett-King, Application Systems HeidelbergApplication Systems Heidelberg
13 Hero-U: Rogue to Redemption Jul 10, 2018 $29.99N/A (N/A/80%)0 .. 20,0000%00:00 (00:00)Transolar GamesTransolar Games
14 Flinthook Apr 18, 2017 $14.99N/A (N/A/80%)100,000 .. 200,0000%00:00 (00:00)Tribute Games Inc.Tribute Games Inc.
15 Tales of Monkey Island: Complete Season Jul 7, 2009 $14.99N/A (N/A/79%)200,000 .. 500,0000%00:00 (00:00)TelltaleTelltale
16 Gothic II: Gold Edition Nov 29, 2005 $9.99N/A (N/A/79%)500,000 .. 1,000,0001.56%03:04 (01:01)Piranha BytesTHQ Nordic
17 Pirates Outlaws Aug 28, 2019 $19.99N/A (N/A/79%)20,000 .. 50,0000%00:00 (00:00)Fabled GameFabled Game
18 Port Royale 2 Apr 30, 2004 $4.99N/A (N/A/75%)50,000 .. 100,0000%00:00 (00:00)Ascaron Entertainment ltd.Strategy First
19 Assassin’s Creed Rogue Mar 9, 2015 $19.99N/A (N/A/74%)500,000 .. 1,000,0001.79%02:36 (00:52)Ubisoft Sofia, Ubisoft KievUbisoft
20 Space Pirates and Zombies Aug 15, 2011 $9.99N/A (N/A/74%)200,000 .. 500,0000%00:00 (00:00)MinMax Games Ltd.MinMax Games Ltd.
21 Nantucket Jan 18, 2018 $17.99N/A (N/A/74%)50,000 .. 100,0000%00:00 (00:00)Picaresque StudioFish Eagle
22 Jolly Rover Jun 7, 2010 $9.99N/A (N/A/71%)100,000 .. 200,0000%00:00 (00:00)BrawsomeBrawsome
23 Sea Dogs Nov 25, 2000 $11.99N/A (N/A/71%)50,000 .. 100,0000%00:00 (00:00)AkellaAkella
24 Willy Morgan and the Curse of Bone Town Aug 11, 2020 $19.99N/A (N/A/71%)0 .. 20,0000%00:00 (00:00)imaginarylabVLG Publishing, WhisperGames
25 Battlewake Sep 10, 2019 $29.99N/A (N/A/70%)0 .. 20,0000%00:00 (00:00)SurviosSurvios
26 Risen 2: Dark Waters Apr 26, 2012 $9.99N/A (N/A/69%)500,000 .. 1,000,0000%00:00 (00:00)Piranha BytesTHQ Nordic
27 Here Be Dragons Aug 16, 2019 $9.99N/A (N/A/69%)0 .. 20,0000%00:00 (00:00)Red Zero GamesRed Zero Games
28 Commander: Conquest of the Americas Jul 30, 2010 $9.99N/A (N/A/68%)50,000 .. 100,00016.67%32:40 (10:53)Nitro GamesNitro Games
29 Port Royale 4 Sep 25, 2020 $39.99N/A (N/A/68%)20,000 .. 50,0000%00:00 (00:00)Gaming MindsKalypso Media
30 East India Company Jul 31, 2009 $9.99N/A (N/A/67%)50,000 .. 100,0000%00:00 (00:00)Nitro GamesNitro Games
31 The Falconeer Nov 10, 2020 $29.99N/A (N/A/67%)50,000 .. 100,0000%00:00 (00:00)Tomas SalaWired Productions
32 Ghost Pirates of Vooju Island Jan 27, 2015 $9.99N/A (N/A/66%)0 .. 20,0000%00:00 (00:00)Autumn MoonViva Media
33 Risen 3 - Titan Lords Aug 12, 2014 $14.99N/A (N/A/65%)500,000 .. 1,000,0000%00:00 (00:00)Piranha BytesTHQ Nordic
34 The Guild II - Pirates of the European Seas Jun 24, 2010 $9.99N/A (N/A/63%)200,000 .. 500,0000%00:00 (00:00)4HEAD StudiosTHQ Nordic
35 Windward May 12, 2015 $9.99N/A (N/A/61%)200,000 .. 500,0000%00:00 (00:00)Tasharen Entertainment Inc.Tasharen Entertainment Inc.
36 Sea Dogs: City of Abandoned Ships May 12, 2009 $7.99N/A (N/A/61%)0 .. 20,0000%00:00 (00:00)AkellaAkella
37 Tempest: Pirate Action RPG Aug 22, 2016 $14.99N/A (N/A/60%)100,000 .. 200,0000%00:00 (00:00)Lion's ShadeHeroCraft PC
38 Pirates of Black Cove Aug 2, 2011 $9.99N/A (N/A/56%)50,000 .. 100,0000%00:00 (00:00)Nitro Games
39 Pixel Piracy Apr 23, 2015 $9.99N/A (N/A)200,000 .. 500,0000%00:00 (00:00)Vitali KirpuBrace Yourself Games, Klei Entertainment
40 Shantae and the Pirate's Curse Apr 23, 2015 $19.99N/A (N/A)200,000 .. 500,0000%00:00 (00:00)WayForwardWayForward
41 Pirate's Life Apr 17, 2015 $4.99N/A (N/A)0 .. 20,0000%00:00 (00:00)Team EyepatchNone
42 Distant Star: Revenant Fleet Apr 7, 2015 $9.99N/A (N/A)50,000 .. 100,0000%00:00 (00:00)Blazing GriffinBlazing Griffin
43 Hero of the Kingdom II Feb 20, 2015 $7.99N/A (N/A)100,000 .. 200,0000%00:00 (00:00)Lonely TroopsLonely Troops
44 Robinson Crusoe and the Cursed Pirates Feb 10, 2015 $9.99N/A (N/A)20,000 .. 50,0000%00:00 (00:00)MagicIndieMumboJumbo
45 Forsaken Isle Feb 6, 2015 $7.99N/A (N/A)20,000 .. 50,0000%00:00 (00:00)SmoodlezSmoodlez
46 Pirate Hell Nov 7, 2014 $5.99N/A (N/A)0 .. 20,0000%00:00 (00:00)Sascha HartlebSascha Hartleb
47 Nightmares from the Deep 3: Davy Jones Mar 27, 2014 $9.99N/A (N/A)50,000 .. 100,0000%00:00 (00:00)Artifex MundiArtifex Mundi
48 Assassin's Creed Freedom Cry Feb 25, 2014 $14.99N/A (N/A)100,000 .. 200,0000%00:00 (00:00)Ubisoft MontrealUbisoft
49 Dead Man's Draw Feb 6, 2014 $6.99N/A (N/A)50,000 .. 100,0000%00:00 (00:00)Stardock EntertainmentStardock Entertainment
50 Captain Morgane and the Golden Turtle Jan 3, 2014 $4.99N/A (N/A)20,000 .. 50,0000%00:00 (00:00)WizarBoxReef Entertainment
51 Nightmares from the Deep 2: The Siren`s Call Jul 24, 2013 $9.99N/A (N/A)50,000 .. 100,0000%00:00 (00:00)Artifex MundiArtifex Mundi
52 Assassin’s Creed IV Black Flag Jul 9, 2013 $39.99N/A (N/A)2,000,000 .. 5,000,0000.79%01:05 (00:21)Ubisoft MontrealUbisoft
53 Pirates vs Corsairs: Davy Jones's Gold May 23, 2013 $4.99N/A (N/A)20,000 .. 50,0000%00:00 (00:00)Little World StudioGames For All
54 Heileen 3: New Horizons Dec 12, 2012 $24.99N/A (N/A)0 .. 20,0000%00:00 (00:00)Winter WolvesWinter Wolves
55 Port Royale 3 May 4, 2012 $14.99N/A (N/A)100,000 .. 200,0000%00:00 (00:00)Gaming Minds StudiosKalypso Media Digital
56 Nightmares from the Deep: The Cursed Heart Apr 19, 2012 $9.99N/A (N/A)100,000 .. 200,0000%00:00 (00:00)Artifex MundiArtifex Mundi
57 Puzzle Pirates Aug 31, 2011 FreeN/A (N/A)200,000 .. 500,0000%00:00 (00:00)Grey Havens, LLCGrey Havens, LLC
58 LEGO Pirates of the Caribbean: The Video Game May 24, 2011 $19.99N/A (N/A)100,000 .. 200,0000%00:00 (00:00)Traveller's TalesDisney
59 Woody Two-Legs: Attack of the Zombie Pirates Nov 2, 2010 $4.99N/A (N/A)20,000 .. 50,0000%00:00 (00:00)Nitro GamesNitro Games
60 Zombie Pirates Sep 1, 2010 $2.99N/A (N/A)0 .. 20,0000%00:00 (00:00)Dust Devil Studios Inc.Strategy First
61 Pirates, Vikings, and Knights II Feb 12, 2010 FreeN/A (N/A)1,000,000 .. 2,000,0001.56%06:25 (02:08)Octoshark StudiosOctoshark Studios
62 Tropico Reloaded Jul 24, 2009 $6.99N/A (N/A)200,000 .. 500,0000%00:00 (00:00)PopTop Software, BreakAway Games, Frog City SoftwareKalypso Media Digital
63 Age of Booty Mar 9, 2009 N/AN/A (N/A)20,000 .. 50,0000%00:00 (00:00)Certain Affinity™Capcom
64 Tradewinds Classics Jul 2, 2007 N/AN/A (N/A)0 .. 20,0000%00:00 (00:00)Sandlot GamesSandlot Games
65 Disney Pirates of the Caribbean: At Worlds End May 22, 2007 $19.99N/A (N/A)20,000 .. 50,0000%00:00 (00:00) Eurocom Entertainment SoftwareDisney
66 Sea Dogs: Caribbean Tales Sep 12, 2006 $11.99N/A (N/A)0 .. 20,0000%00:00 (00:00)AkellaAkella
67 Disney's Treasure Planet: Battle of Procyon Oct 31, 2002 $9.99N/A (N/A)20,000 .. 50,0000%00:00 (00:00)Barking Dog StudiosDisney
68 El Tesoro de Isla Alcachofa Aug 8, 2000 $11.99N/A (N/A)20,000 .. 50,0000%00:00 (00:00)Alcachofa SoftErbe Software
69 Sea Legends May 31, 1996 $6.99N/A (N/A)20,000 .. 50,0000%00:00 (00:00)Mir Dialogue, OceanZiggurat
70 Sid Meier's Pirates! Gold Plus (Classic) Jan 1, 1987 $6.99N/A (N/A)20,000 .. 50,0000%00:00 (00:00)MicroProse Software, IncRetroism, Nightdive Studios
71 Furious Seas Jul 18, 2021 $19.99N/A (N/A)20,000 .. 50,0000%00:00 (00:00)Future ImmersiveFuture Immersive
72 Walkabout Mini Golf VR Jul 15, 2021 $14.99N/A (N/A)20,000 .. 50,00066.67%04:34 (05:23)Mighty CoconutMighty Coconut
73 Antiprism Jun 21, 2021 $17.99N/A (N/A)0 .. 20,0000%00:00 (00:00)Zero FunZero Fun
74 Build Em' Faster Jun 7, 2021 $5.99N/A (N/A)0 .. 20,0000%00:00 (00:00)CrooLabCrooLab
75 Girls' civilization 2 VR Jun 1, 2021 $12.99N/A (N/A)0 .. 20,0000%00:00 (00:00)MoondolinoMoondolino
76 I Am the Captain Now May 27, 2021 $8.99N/A (N/A)0 .. 20,0000%00:00 (00:00)North Lake GamesNorth Lake Games
77 King of Seas May 25, 2021 $24.99N/A (N/A)20,000 .. 50,0000%00:00 (00:00)3DCloudsTeam17
78 Impostor Island May 23, 2021 $18.99N/A (N/A)0 .. 20,0000%00:00 (00:00)Wonder FactoryWonder Factory
79 Golden Force Apr 22, 2021 $14.99N/A (N/A)0 .. 20,0000%00:00 (00:00)Storybird StudioNo Gravity Games
80 Shell Shuffle Apr 5, 2021 $9.99N/A (N/A)20,000 .. 50,0000%00:00 (00:00)Victorian ClambakeVictorian Clambake
81 Cutthroat Cove Mar 30, 2021 $19.99N/A (N/A)0 .. 20,0000%00:00 (00:00)Wicked GamesWicked Games
82 IWOCon 2021 Mar 26, 2021 FreeN/A (N/A)20,000 .. 50,0000%00:00 (00:00)Indie World OrderIndie World Order
83 Pirate Story Mar 18, 2021 $1.99N/A (N/A)0 .. 20,0000%00:00 (00:00)Luci EntertainmentLuci Entertainment
84 Forza Yang Mar 15, 2021 $0.99N/A (N/A)0 .. 20,0000%00:00 (00:00)Crocodile and cactusCrocodile and cactus
85 Pirate Island Mar 13, 2021 $2.99N/A (N/A)0 .. 20,0000%00:00 (00:00)ImperiumGameImperiumGame
86 PIRATECRAFT Mar 12, 2021 $0.99N/A (N/A)0 .. 20,0000%00:00 (00:00)Game for gamesGame for games
87 Duel on Board Mar 4, 2021 $7.99N/A (N/A)0 .. 20,0000%00:00 (00:00)rebel rabbitindienova
88 Merchants of the Caribbean Mar 3, 2021 $6.99N/A (N/A)0 .. 20,0000%00:00 (00:00)GameOn ProductionAlawar Entertainment
89 Save the Pirate: Sea Story Feb 25, 2021 FreeN/A (N/A)0 .. 20,0000%00:00 (00:00)MaurisMauris
90 Silent Sector Feb 17, 2021 $14.99N/A (N/A)0 .. 20,0000%00:00 (00:00)Rake in GrassRake in Grass
91 Pirate of Madagascar Island Feb 15, 2021 $4.99N/A (N/A)0 .. 20,0000%00:00 (00:00)Pranay MundaPranay Munda
92 Captains & Dungeons Feb 14, 2021 $4.99N/A (N/A)0 .. 20,0000%00:00 (00:00)Liprix GamesLiprix Games
93 Endless Voyage / 无尽航线 Jan 7, 2021 $12.74N/A (N/A)20,000 .. 50,0000%00:00 (00:00)Dalaran Game StudioKuYou Games
94 Timewalk Tower Defense Jan 1, 2021 $4.99N/A (N/A)50,000 .. 100,0000%00:00 (00:00)Maxeymus GamesMaxeymus Games
95 Pinball Dec 29, 2020 $9.99N/A (N/A)0 .. 20,0000%00:00 (00:00)HubelHubel
96 Captain Pegleg Dec 27, 2020 $9.99N/A (N/A)0 .. 20,0000%00:00 (00:00)xeamxeam
97 Sink Again Dec 17, 2020 $9.99N/A (N/A)20,000 .. 50,0000%00:00 (00:00)FlatcoonFlatcoon
98 Skycadia Dec 7, 2020 $9.99N/A (N/A)0 .. 20,0000%00:00 (00:00)Studio Nisse LLCStudio Nisse LLC
99 Batterneers Dec 1, 2020 FreeN/A (N/A)0 .. 20,0000%00:00 (00:00)Batterneers DevBatterneers Dev
100 Pirates of Frontiers Reach Nov 30, 2020 $19.99N/A (N/A)20,000 .. 50,0000%00:00 (00:00)Blind Alien ProductionsBlind Alien Productions
101 StoneTide: Age of Pirates Nov 27, 2020 $9.99N/A (N/A)0 .. 20,0000%00:00 (00:00)StoneTide EntertainmentStoneTide Entertainment
102 Captain Sabertooth and the Magic Diamond Nov 20, 2020 $34.99N/A (N/A)0 .. 20,0000%00:00 (00:00)Ravn StudioZordix Publishing
103 Pocket Penguin ( ポケットペンギン): A Game Boy Style Adventure Nov 15, 2020 $5.99N/A (N/A)0 .. 20,0000%00:00 (00:00)Dog Biscuit StudiosDog Biscuit Studios
104 Tribal Wars Nov 12, 2020 FreeN/A (N/A)20,000 .. 50,0000%00:00 (00:00)InnoGamesInnoGames
105 Be a Pirate Nov 9, 2020 $9.99N/A (N/A)0 .. 20,0000%00:00 (00:00)AmfichPiece Of Voxel
106 Blazing Sails: Pirate Battle Royale Nov 5, 2020 $11.24N/A (N/A)100,000 .. 200,0000%00:00 (00:00)Get Up GamesIceberg Interactive
107 Chaos Combat Chess Oct 20, 2020 FreeN/A (N/A)20,000 .. 50,0000%00:00 (00:00)This Game StudioRogue Games, Inc.
108 Out of Reach: Treasure Royale Oct 14, 2020 $14.99N/A (N/A)0 .. 20,0000%00:00 (00:00)Space Boat StudiosPlayWay S.A.
109 A pirate quartermaster Oct 2, 2020 $17.99N/A (N/A)0 .. 20,0000%00:00 (00:00)Ivan ArmandyIvan Armandy
110 Path to Prosperity Sep 18, 2020 $14.99N/A (N/A)0 .. 20,0000%00:00 (00:00)Essence GamesEssence Games
111 Color Security Sep 6, 2020 $4.99N/A (N/A)0 .. 20,0000%00:00 (00:00)TposeSoftwareTposeSoftware
112 Turtle's Quest Aug 26, 2020 FreeN/A (N/A)20,000 .. 50,0000%00:00 (00:00)Kid's RevoltKid's Revolt
113 Space Bar at the End of the Galaxy Aug 21, 2020 $4.99N/A (N/A)0 .. 20,0000%00:00 (00:00)Little Black Book EntertainmentLittle Black Book Entertainment
114 Poly Pirates Aug 15, 2020 $4.99N/A (N/A)0 .. 20,0000%00:00 (00:00)Daniel CrandallShroud Studios
115 Aye Aye, Captain Aug 4, 2020 $2.99N/A (N/A)0 .. 20,0000%00:00 (00:00)North State GamesNorth State Games
116 Magic Archers Jul 27, 2020 $7.99N/A (N/A)0 .. 20,0000%00:00 (00:00)Village People GamesVillage People Games
117 Penny's Path Jul 24, 2020 FreeN/A (N/A)0 .. 20,0000%00:00 (00:00)Strategic Thinking LLCStrategic Thinking LLC
118 My Sail And My Sea Jun 30, 2020 $2.99N/A (N/A)0 .. 20,0000%00:00 (00:00)心田游戏(Heart Field Games)心田游戏(Heart Field Games)
119 Cannon Father Jun 23, 2020 $5.99N/A (N/A)0 .. 20,0000%00:00 (00:00)Two Scoop StudioTwo Scoop Studio
120 Takelshin Jun 19, 2020 $4.99N/A (N/A)0 .. 20,0000%00:00 (00:00)MINBEKKERMINBEKKER
121 Sea of Thieves Jun 3, 2020 $39.99N/A (N/A)2,000,000 .. 5,000,0009.43%07:03 (04:52)Rare LtdXbox Game Studios
122 Rum & Gun May 1, 2020 $4.99N/A (N/A)0 .. 20,0000%00:00 (00:00)BoringtonBorington
123 Pirates? Pirates! Mar 30, 2020 $3.99N/A (N/A)0 .. 20,0000%00:00 (00:00)Amrita StudioAmrita Studio
124 ONE PIECE: PIRATE WARRIORS 4 Mar 26, 2020 $59.99N/A (N/A)200,000 .. 500,0000%00:00 (00:00)Koei TecmoBANDAI NAMCO Entertainment
125 Coffin Rot Brewing Co. Mar 13, 2020 $9.99N/A (N/A)0 .. 20,0000%00:00 (00:00)Nooner Bear Studio LLCNooner Bear Studio LLC
126 Horizon's Gate Mar 9, 2020 $19.99N/A (N/A)20,000 .. 50,0000%00:00 (00:00)Rad CodexRad Codex
127 Paper Pirates Feb 28, 2020 $8.99N/A (N/A)0 .. 20,0000%00:00 (00:00)Iteration GamesIteration Games
128 Blackwake Feb 19, 2020 $9.99N/A (N/A)200,000 .. 500,0001.38%02:41 (01:47)Mastfire Studios Pty LtdMastfire Studios Pty Ltd
129 Void Destroyer 2 Feb 6, 2020 $19.99N/A (N/A)20,000 .. 50,0000%00:00 (00:00)Iteration 11Iteration 11
130 P1R4T3S Jan 31, 2020 $9.99N/A (N/A)0 .. 20,0000%00:00 (00:00)LLC Blini GamesLLC Blini Games
131 A Percent of a Pirate Jan 17, 2020 $0.99N/A (N/A)0 .. 20,0000%00:00 (00:00)LuminarkLuminark
132 Sea King Dec 24, 2019 $4.99N/A (N/A)0 .. 20,0000%00:00 (00:00)Interactive StoneInteractive Stone
133 SugarMill Dec 19, 2019 $19.99N/A (N/A)0 .. 20,0000%00:00 (00:00)Aatlantis CodeAatlantis Code
134 Uniseas Dec 12, 2019 $2.99N/A (N/A)0 .. 20,0000%00:00 (00:00)Sokpop CollectiveSokpop Collective
135 XO Dec 2, 2019 $19.99N/A (N/A)0 .. 20,0000%00:00 (00:00)Jumpdrive StudiosJumpdrive Studios
136 Of Ships & Scoundrels Nov 14, 2019 $14.99N/A (N/A)0 .. 20,0000%00:00 (00:00)Korion GamesKorion Games
137 HAM-MASTER Nov 8, 2019 $0.79N/A (N/A)0 .. 20,0000%00:00 (00:00)STUDIOS MAGMASTUDIOS MAGMA
138 Feral Blue Oct 22, 2019 $19.99N/A (N/A)0 .. 20,0000%00:00 (00:00)Snowbird GamesSnowbird Games
139 Abandon Ship Oct 22, 2019 $24.99N/A (N/A)50,000 .. 100,0000%00:00 (00:00)Fireblade SoftwareFireblade Software
140 Mutiny Island Oct 18, 2019 $7.99N/A (N/A)20,000 .. 50,0000%00:00 (00:00)ElushisElushis Music & Gaming
141 Maelstrom Sep 20, 2019 FreeN/A (N/A)200,000 .. 500,0000%00:00 (00:00)Gunpowder Games, Inc.Double Jump Publishing
142 Seacurity Breach Sep 20, 2019 $9.99N/A (N/A)0 .. 20,0000%00:00 (00:00)SoaphogSoaphog
143 Dandy & Randy Sep 2, 2019 N/AN/A (N/A)0 .. 20,0000%00:00 (00:00)Asteristic Game StudioAsteristic Game Studio
144 Buoyancy Aug 30, 2019 $12.99N/A (N/A)20,000 .. 50,0000%00:00 (00:00)Devs on a BoatDevs on a Boat
145 Uncharted Tides: Port Royal Aug 29, 2019 $14.99N/A (N/A)0 .. 20,0000%00:00 (00:00)Cordelia GamesArtifex Mundi
146 Pirates Are BLANKing Awesome Jul 17, 2019 $1.99N/A (N/A)0 .. 20,0000%00:00 (00:00)Poorwill GamesPoorwill Games
147 Naval Action Jun 13, 2019 $19.99N/A (N/A)200,000 .. 500,00014.29%11:05 (03:41)Game-LabsGame-Labs
148 Giant Life Jun 7, 2019 $9.99N/A (N/A)0 .. 20,0000%00:00 (00:00)PatagoniartPatagoniart
149 Black Baron May 29, 2019 $10.99N/A (N/A)0 .. 20,0000%00:00 (00:00)toR StudiotoR Studio
150 Sail and Sacrifice May 23, 2019 $19.99N/A (N/A)0 .. 20,0000%00:00 (00:00)CAGE StudiosCAGE Studios
151 Ferret Scoundrels May 9, 2019 $19.99N/A (N/A)0 .. 20,0000%00:00 (00:00)Cryogenic EntertainmentCryogenic Entertainment
152 Privateers Apr 18, 2019 $9.99N/A (N/A)0 .. 20,0000%00:00 (00:00)Monster TreeMonster Tree
153 Sticks And Bones Mar 28, 2019 $5.99N/A (N/A)0 .. 20,0000%00:00 (00:00)Mohammad ArkobiMohammad Arkobi
154 Shipped Mar 28, 2019 $5.99N/A (N/A)20,000 .. 50,0000%00:00 (00:00)MajorariattoMajorariatto
155 ONE PIECE World Seeker Mar 14, 2019 $59.99N/A (N/A)100,000 .. 200,0000%00:00 (00:00)GANBARION Co., Ltd.BANDAI NAMCO Entertainment
156 Block of Rum Feb 5, 2019 $1.99N/A (N/A)0 .. 20,0000%00:00 (00:00)Obi-WanyaObi-Wanya
157 ATLAS Dec 22, 2018 $29.99N/A (N/A)1,000,000 .. 2,000,0004.08%05:57 (03:57)Grapeshot Games, Instinct GamesGrapeshot Games
158 Uncharted Waters Online Dec 19, 2018 FreeN/A (N/A)50,000 .. 100,0000%00:00 (00:00)KOEI TECMO GAMES CO., LTD.Papaya Play
159 kraken's curse Dec 8, 2018 $2.99N/A (N/A)0 .. 20,0000%00:00 (00:00)Sokpop CollectiveSokpop Collective
160 Heart of Moon : The Mask of Seasons Dec 6, 2018 $5.99N/A (N/A)0 .. 20,0000%00:00 (00:00)UnikgameUnikware
161 Swords and Sandals Pirates Nov 30, 2018 $6.99N/A (N/A)0 .. 20,0000%00:00 (00:00)Whiskeybarrel StudioseGames.com
162 Pirates of the Polygon Sea Nov 30, 2018 $8.99N/A (N/A)0 .. 20,0000%00:00 (00:00)Praxia EntertainmentPraxia Entertainment
163 Puzzle Plunder Oct 9, 2018 FreeN/A (N/A)0 .. 20,0000%00:00 (00:00)WindybeardWindybeard
164 Pirate Island Rescue Sep 17, 2018 $2.99N/A (N/A)20,000 .. 50,0000%00:00 (00:00)Bad Logic StudiosBad Logic Studios
165 Ink Plane Sep 16, 2018 $0.99N/A (N/A)0 .. 20,0000%00:00 (00:00)Artur PetrovArtur Petrov
166 Salty Seabird Bay Sep 11, 2018 $5.99N/A (N/A)0 .. 20,0000%00:00 (00:00)ZealwindZealwind
167 Flynn and Freckles Sep 7, 2018 $9.99N/A (N/A)0 .. 20,0000%00:00 (00:00)Rookie Hero GamesRookie Hero Games
168 Factory pirates Aug 24, 2018 $3.99N/A (N/A)0 .. 20,0000%00:00 (00:00)WhackAKey GamesBig Black Bear
169 Unearned Bounty Aug 22, 2018 FreeN/A (N/A)100,000 .. 200,0000%00:00 (00:00)Extrokold GamesExtrokold Games
170 Space Captain McCallery - Episode 1: Crash Landing Jul 20, 2018 $4.99N/A (N/A)20,000 .. 50,0000%00:00 (00:00)Renegade Sector GamesRenegade Sector Games
171 Adventure Time: Pirates of the Enchiridion Jul 17, 2018 $19.99N/A (N/A)0 .. 20,0000%00:00 (00:00)Climax StudiosOutright Games Ltd.
172 Crooked Waters Jul 13, 2018 FreeN/A (N/A)0 .. 20,0000%00:00 (00:00)Craft Game StudioCraft Game Studio
173 Puzzle Pirates: Dark Seas Jul 6, 2018 FreeN/A (N/A)100,000 .. 200,0000%00:00 (00:00)Grey Havens, LLCGrey Havens, LLC
174 SAS Jun 6, 2018 $14.99N/A (N/A)20,000 .. 50,0000%00:00 (00:00)True Illusion SoftwareTrue Illusion Software
175 The Pirates of Sector 7 Jun 1, 2018 FreeN/A (N/A)0 .. 20,0000%00:00 (00:00)Legacy GameworksLegacy Gameworks
176 Cursed Lands May 18, 2018 $24.99N/A (N/A)0 .. 20,0000%00:00 (00:00)Winter WolvesWinter Wolves
177 Virtual Pirate VR May 11, 2018 $9.99N/A (N/A)0 .. 20,0000%00:00 (00:00)MAMMOSSIX Co., Ltd.MAMMOSSIX Co., Ltd.
178 Pirate Code Apr 24, 2018 $11.24N/A (N/A)0 .. 20,0000%00:00 (00:00)Circuit HiveCircuit Hive
179 Don't Sink Apr 13, 2018 $9.99N/A (N/A)20,000 .. 50,0000%00:00 (00:00)Sebastian Nigro, Christopher Anselmo, Daniel MarquesStudio Eris
180 HYKEE - Episode 1: Underwater Apr 13, 2018 $0.99N/A (N/A)0 .. 20,0000%00:00 (00:00)NachoNacho
181 Levantera: Tale of The Winds Apr 2, 2018 $9.99N/A (N/A)0 .. 20,0000%00:00 (00:00)Lasso Games, LLCLasso Games, LLC
182 The Pirate's Fate Mar 27, 2018 $19.99N/A (N/A)0 .. 20,0000%00:00 (00:00)T.F. Wright, VolkenfoxFoxWright Productions
183 League of Pirates Mar 13, 2018 N/AN/A (N/A)20,000 .. 50,0000%00:00 (00:00)upjersupjers
184 Salt Feb 6, 2018 $14.99N/A (N/A)50,000 .. 100,0000%00:00 (00:00)Lavaboots StudiosLavaboots Studios
185 VR Regatta - The Sailing Game Jan 30, 2018 $29.99N/A (N/A)100,000 .. 200,0000%00:00 (00:00)MarineVerseMarineVerse
186 Shadowhand: RPG Card Game Dec 7, 2017 $3.74N/A (N/A)20,000 .. 50,0000%00:00 (00:00)Grey Alien GamesPositech Games
187 Space Pirates And Zombies 2 Nov 7, 2017 $19.99N/A (N/A)200,000 .. 500,0000%00:00 (00:00)MinMax Games Ltd.MinMax Games Ltd.
188 Mutiny!! Oct 20, 2017 $9.99N/A (N/A)0 .. 20,0000%00:00 (00:00)LupiesoftLupiesoft, MangaGamer
189 The Pirate: Plague of the Dead Oct 13, 2017 FreeN/A (N/A)100,000 .. 200,0000%00:00 (00:00)Home Net GamesHome Net Games
190 Space Pirate Trainer Oct 12, 2017 $14.99N/A (N/A)100,000 .. 200,0000%00:00 (00:00)I-IllusionsI-Illusions
191 Captain Firebeard and the Bay of Crows Oct 4, 2017 $9.99N/A (N/A)0 .. 20,0000%00:00 (00:00)Sapphire Dragon ProductionsSapphire Dragon Productions
192 战术狂想1(Chimera of Tactics 1) Sep 27, 2017 $0.99N/A (N/A)0 .. 20,0000%00:00 (00:00)自由愉悦小黄猫(Free pleasure little yellow cat)自由愉悦小黄猫(Free pleasure little yellow cat)
193 Battle of Frigates Sep 21, 2017 $2.99N/A (N/A)20,000 .. 50,0000%00:00 (00:00)Dmitriy Uvarov, Vyacheslav ShilikhinDroid Riot
194 The Caribbean Sail Sep 19, 2017 $14.99N/A (N/A)0 .. 20,0000%00:00 (00:00)Victorian ClambakeVictorian Clambake
195 One Piece: Unlimited World Red - Deluxe Edition Aug 25, 2017 $39.99N/A (N/A)0 .. 20,0000%00:00 (00:00)GanbarionBANDAI NAMCO Entertainment
196 Cutthroat Gunboat Aug 11, 2017 $1.99N/A (N/A)0 .. 20,0000%00:00 (00:00)Minor FactionMinor Faction
197 The Zwuggels - A Beach Holiday Adventure for Kids Jul 20, 2017 $2.99N/A (N/A)0 .. 20,0000%00:00 (00:00)Ploosh GmbHPloosh GmbH
198 BATTLECREW Space Pirates Jul 10, 2017 FreeN/A (N/A)100,000 .. 200,0000%00:00 (00:00)DONTNOD ELEVENDONTNOD ELEVEN
199 Robot Pirates Jun 9, 2017 $0.99N/A (N/A)0 .. 20,0000%00:00 (00:00)Tydecon GamesTydecon Games
200 Son Korsan May 30, 2017 FreeN/A (N/A)50,000 .. 100,0000%00:00 (00:00)Consala GamesConsala Games
201 Lone Pirate VR May 26, 2017 $0.99N/A (N/A)0 .. 20,0000%00:00 (00:00)b08b08
202 Worlds Adrift May 24, 2017 N/AN/A (N/A)100,000 .. 200,0000%00:00 (00:00)Bossa StudiosBossa Studios
203 Landless May 10, 2017 $14.99N/A (N/A)0 .. 20,0000%00:00 (00:00)CodeBulletCodeBullet
204 Neighboring Islands Apr 30, 2017 $0.99N/A (N/A)20,000 .. 50,0000%00:00 (00:00)Angry gamesAngry games
205 Man O' War: Corsair - Warhammer Naval Battles Apr 19, 2017 N/AN/A (N/A)20,000 .. 50,0000%00:00 (00:00)Evil Twin ArtworksEvil Twin Artworks
206 Space Station Loma: OPERATIONS Mar 17, 2017 $13.99N/A (N/A)0 .. 20,0000%00:00 (00:00)SpielmannSpiel, bisonSpielmannSpiel
207 Winds Of Trade Feb 13, 2017 $11.99N/A (N/A)0 .. 20,0000%00:00 (00:00)Hermes InteractiveHermes Interactive
208 HoD: On open seas Dec 24, 2016 $0.99N/A (N/A)0 .. 20,0000%00:00 (00:00)Pirate goup mediaPirate group media
209 Heroes of the Seven Seas VR Oct 14, 2016 $6.99N/A (N/A)0 .. 20,0000%00:00 (00:00)Mirage Interactive, 北京魔视互动科技有限公司Mirage Interactive, 北京魔视互动科技有限公司
210 Smash Up Oct 12, 2016 $6.99N/A (N/A)0 .. 20,0000%00:00 (00:00)Nomad GamesNomad Games
211 Duke Grabowski, Mighty Swashbuckler Oct 6, 2016 $1.99N/A (N/A)20,000 .. 50,0000%00:00 (00:00)Venture Moon IndustriesAlliance Digital Media
212 VROOM: Galleon Sep 5, 2016 $6.99N/A (N/A)0 .. 20,0000%00:00 (00:00)VROOMVROOM
213 One Piece Burning Blood Sep 1, 2016 $49.99N/A (N/A)100,000 .. 200,0000%00:00 (00:00)Spike Chunsoft Co., Ltd.BANDAI NAMCO Entertainment
214 The Pirate: Caribbean Hunt Aug 24, 2016 FreeN/A (N/A)500,000 .. 1,000,0000%00:00 (00:00)Home Net GamesHome Net Games
215 Archipelago Aug 17, 2016 $0.99N/A (N/A)0 .. 20,0000%00:00 (00:00)TortTort
216 The Last Leviathan Jun 22, 2016 $9.99N/A (N/A)50,000 .. 100,0000%00:00 (00:00)Super Punk GamesSuper Punk Games
217 V ARRR Jun 10, 2016 $9.99N/A (N/A)0 .. 20,0000%00:00 (00:00)Blackjard SoftworksBlackjard Softworks
218 Choice of the Pirate May 20, 2016 $3.99N/A (N/A)0 .. 20,0000%00:00 (00:00)Choice of GamesChoice of Games
219 Skyhook May 17, 2016 $4.99N/A (N/A)0 .. 20,0000%00:00 (00:00)Megastorm GamesMegastorm Games
220 Assassins vs Pirates May 10, 2016 $7.99N/A (N/A)0 .. 20,0000%00:00 (00:00)DEADBITDEADBIT
221 Pixel Survivors May 5, 2016 $3.99N/A (N/A)50,000 .. 100,0000%00:00 (00:00)PatagoniartPatagoniart
222 The Inner Sea Mar 30, 2016 $11.99N/A (N/A)0 .. 20,0000%00:00 (00:00)dsquaredsquare
223 Sea Dogs: To Each His Own - Pirate Open World RPG Feb 12, 2016 $14.99N/A (N/A)200,000 .. 500,0000%00:00 (00:00)BlackMark StudioAkella, Valkyrie Initiative
224 Blood and Gold: Caribbean! Dec 10, 2015 $19.99N/A (N/A)50,000 .. 100,0000%00:00 (00:00)Snowbird GamesSnowbird Games
225 Astrox: Hostile Space Excavation Dec 1, 2015 $9.99N/A (N/A)50,000 .. 100,0000%00:00 (00:00)Jace MasulaJace Masula
226 Vendetta - Curse of Raven's Cry Nov 20, 2015 $7.49N/A (N/A)200,000 .. 500,0000%00:00 (00:00)Reality Pump StudiosTopWare Interactive, ACE
227 Caribbean Odyssey Nov 12, 2015 $9.99N/A (N/A)0 .. 20,0000%00:00 (00:00)Imran ArafatReality Gameware
228 Swords & Crossbones: An Epic Pirate Story Sep 30, 2015 $4.99N/A (N/A)0 .. 20,0000%00:00 (00:00)Epic Devs LLCEpic Devs LLC
229 Black Sails - The Ghost Ship Sep 17, 2015 $9.99N/A (N/A)50,000 .. 100,0000%00:00 (00:00)Deck13Deck13
230 Braveland Pirate Sep 15, 2015 $9.99N/A (N/A)20,000 .. 50,0000%00:00 (00:00)Tortuga TeamTortuga Team
231 One Piece Pirate Warriors 3 Aug 27, 2015 $39.99N/A (N/A)500,000 .. 1,000,0003.23%01:47 (00:35)KOEI TECMO GAMES CO., LTD.BANDAI NAMCO Entertainment
Overview

Pirates

Games with this tag: 231
Average userscore: N/A%
Average metascore: 74.74%
Average playtime: 07:25
Total copies owned: 30,371,000
Average price: $12.36
Help

Owners: Estimated number of people owning this game. The number might be way too small for new releases and sometimes way too big for games that had free weekend event recently. Read more on About page.

Playtime: Average hours played in total per person that have actually launched this game since March 2009. This time is calculated for the whole lifetime, not for the particular year.

Average score: Average users and metacritic score for all games with this score assigned.

Average playtime: Average lifetime playtime for all games where this data is available.

Games in this genre: Self-explaining - number of games with this tag. Only inculdes games with sales data available.

Total copies owned: Refers to total copies of games with this tag acquired by users for the lifetime. Includes copies sold, downloaded for free and given out.

This number might be too small for recently released games or too big for games that had a free weekend in the last couple of months.

Graphs

Login required.

Please register or log in to see this information.

Login required.

Please register or log in to see this information.